sensor_id;sensor_type;location;lat;lon;timestamp;pressure;altitude;pressure_sealevel;temperature;humidity
38786;BME280;24535;45.508;12.252;2022-09-24T00:02:21;101717.03;;;19.74;50.86
38786;BME280;24535;45.508;12.252;2022-09-24T00:04:46;101703.94;;;19.71;50.39
38786;BME280;24535;45.508;12.252;2022-09-24T00:07:12;101696.16;;;19.68;50.57
38786;BME280;24535;45.508;12.252;2022-09-24T00:09:37;101703.34;;;19.68;50.03
38786;BME280;24535;45.508;12.252;2022-09-24T00:12:03;101700.69;;;19.68;50.46
38786;BME280;24535;45.508;12.252;2022-09-24T00:14:31;101704.06;;;19.70;51.03
38786;BME280;24535;45.508;12.252;2022-09-24T00:16:57;101691.53;;;19.70;50.41
38786;BME280;24535;45.508;12.252;2022-09-24T00:19:22;101696.31;;;19.76;50.63
38786;BME280;24535;45.508;12.252;2022-09-24T00:21:48;101697.88;;;19.79;51.06
38786;BME280;24535;45.508;12.252;2022-09-24T00:24:15;101695.94;;;19.81;50.37
38786;BME280;24535;45.508;12.252;2022-09-24T00:26:59;101698.47;;;19.83;50.94
38786;BME280;24535;45.508;12.252;2022-09-24T00:29:25;101695.38;;;19.78;50.84
38786;BME280;24535;45.508;12.252;2022-09-24T00:31:51;101696.78;;;19.82;50.43
38786;BME280;24535;45.508;12.252;2022-09-24T00:34:23;101692.97;;;19.84;50.61
38786;BME280;24535;45.508;12.252;2022-09-24T00:36:49;101691.69;;;19.88;50.36
38786;BME280;24535;45.508;12.252;2022-09-24T00:39:15;101691.56;;;19.90;50.21
38786;BME280;24535;45.508;12.252;2022-09-24T00:41:44;101685.50;;;19.88;50.10
38786;BME280;24535;45.508;12.252;2022-09-24T00:47:05;101690.84;;;19.88;50.46
38786;BME280;24535;45.508;12.252;2022-09-24T00:49:31;101682.97;;;19.86;50.51
38786;BME280;24535;45.508;12.252;2022-09-24T00:51:57;101682.72;;;19.89;50.10
38786;BME280;24535;45.508;12.252;2022-09-24T00:54:24;101685.91;;;19.93;50.48
38786;BME280;24535;45.508;12.252;2022-09-24T00:56:57;101690.88;;;19.97;50.76
38786;BME280;24535;45.508;12.252;2022-09-24T00:59:24;101684.25;;;20.02;50.60
38786;BME280;24535;45.508;12.252;2022-09-24T01:01:52;101686.63;;;20.05;50.74
38786;BME280;24535;45.508;12.252;2022-09-24T01:04:25;101680.44;;;20.04;50.43
38786;BME280;24535;45.508;12.252;2022-09-24T01:06:51;101674.53;;;20.00;50.50
38786;BME280;24535;45.508;12.252;2022-09-24T01:09:21;101674.69;;;19.99;50.80
38786;BME280;24535;45.508;12.252;2022-09-24T01:14:56;101667.91;;;19.95;50.89
38786;BME280;24535;45.508;12.252;2022-09-24T01:28:43;101658.63;;;19.89;51.21
38786;BME280;24535;45.508;12.252;2022-09-24T01:31:25;101643.28;;;19.91;50.95
38786;BME280;24535;45.508;12.252;2022-09-24T01:33:56;101644.53;;;19.87;51.05
38786;BME280;24535;45.508;12.252;2022-09-24T01:36:30;101641.88;;;19.87;51.37
38786;BME280;24535;45.508;12.252;2022-09-24T01:38:58;101635.97;;;19.93;51.51
38786;BME280;24535;45.508;12.252;2022-09-24T01:41:42;101637.06;;;20.00;51.53
38786;BME280;24535;45.508;12.252;2022-09-24T01:44:12;101636.38;;;19.98;51.28
38786;BME280;24535;45.508;12.252;2022-09-24T01:46:40;101633.56;;;20.00;51.51
38786;BME280;24535;45.508;12.252;2022-09-24T01:49:09;101628.38;;;19.98;51.51
38786;BME280;24535;45.508;12.252;2022-09-24T01:51:46;101630.47;;;19.95;51.87
38786;BME280;24535;45.508;12.252;2022-09-24T01:54:38;101625.41;;;19.92;52.18
38786;BME280;24535;45.508;12.252;2022-09-24T01:57:14;101625.81;;;19.87;52.13
38786;BME280;24535;45.508;12.252;2022-09-24T02:00:02;101623.72;;;19.81;52.06
38786;BME280;24535;45.508;12.252;2022-09-24T02:05:38;101620.91;;;19.73;51.56
38786;BME280;24535;45.508;12.252;2022-09-24T02:11:21;101628.78;;;19.74;51.31
38786;BME280;24535;45.508;12.252;2022-09-24T02:13:57;101614.84;;;19.71;51.74
38786;BME280;24535;45.508;12.252;2022-09-24T02:16:36;101614.84;;;19.71;51.66
38786;BME280;24535;45.508;12.252;2022-09-24T02:19:10;101608.94;;;19.67;52.08
38786;BME280;24535;45.508;12.252;2022-09-24T02:21:39;101596.84;;;19.63;51.91
38786;BME280;24535;45.508;12.252;2022-09-24T02:24:09;101597.81;;;19.62;52.24
38786;BME280;24535;45.508;12.252;2022-09-24T02:26:38;101607.69;;;19.62;51.98
38786;BME280;24535;45.508;12.252;2022-09-24T02:29:38;101602.41;;;19.60;52.38
38786;BME280;24535;45.508;12.252;2022-09-24T02:32:43;101596.50;;;19.57;52.42
38786;BME280;24535;45.508;12.252;2022-09-24T02:35:11;101590.47;;;19.55;52.03
38786;BME280;24535;45.508;12.252;2022-09-24T02:37:41;101584.28;;;19.54;52.12
38786;BME280;24535;45.508;12.252;2022-09-24T02:40:10;101583.44;;;19.54;51.80
38786;BME280;24535;45.508;12.252;2022-09-24T02:42:41;101578.94;;;19.54;51.92
38786;BME280;24535;45.508;12.252;2022-09-24T02:45:11;101574.59;;;19.53;51.91
38786;BME280;24535;45.508;12.252;2022-09-24T02:47:42;101574.44;;;19.55;51.70
38786;BME280;24535;45.508;12.252;2022-09-24T02:53:16;101568.09;;;19.56;51.47
38786;BME280;24535;45.508;12.252;2022-09-24T02:55:42;101561.75;;;19.57;51.19
38786;BME280;24535;45.508;12.252;2022-09-24T02:58:07;101568.09;;;19.56;51.76
38786;BME280;24535;45.508;12.252;2022-09-24T03:00:42;101565.41;;;19.56;51.86
38786;BME280;24535;45.508;12.252;2022-09-24T03:03:08;101571.59;;;19.56;51.84
38786;BME280;24535;45.508;12.252;2022-09-24T03:05:33;101571.75;;;19.55;52.46
38786;BME280;24535;45.508;12.252;2022-09-24T03:07:59;101569.78;;;19.57;52.46
38786;BME280;24535;45.508;12.252;2022-09-24T03:10:24;101569.78;;;19.57;52.59
38786;BME280;24535;45.508;12.252;2022-09-24T03:12:53;101571.50;;;19.58;52.54
38786;BME280;24535;45.508;12.252;2022-09-24T03:15:18;101577.94;;;19.55;52.59
38786;BME280;24535;45.508;12.252;2022-09-24T03:17:44;101586.97;;;19.54;52.89
38786;BME280;24535;45.508;12.252;2022-09-24T03:20:09;101588.06;;;19.51;52.45
38786;BME280;24535;45.508;12.252;2022-09-24T03:22:39;101580.63;;;19.45;52.64
38786;BME280;24535;45.508;12.252;2022-09-24T03:25:05;101593.69;;;19.48;53.16
38786;BME280;24535;45.508;12.252;2022-09-24T03:27:30;101607.06;;;19.48;53.00
38786;BME280;24535;45.508;12.252;2022-09-24T03:29:56;101594.25;;;19.42;53.20
38786;BME280;24535;45.508;12.252;2022-09-24T03:32:40;101601.56;;;19.40;52.86
38786;BME280;24535;45.508;12.252;2022-09-24T03:35:05;101607.78;;;19.41;53.38
38786;BME280;24535;45.508;12.252;2022-09-24T03:37:31;101607.91;;;19.39;52.80
38786;BME280;24535;45.508;12.252;2022-09-24T03:40:00;101597.94;;;19.41;53.04
38786;BME280;24535;45.508;12.252;2022-09-24T03:42:25;101591.75;;;19.41;53.30
38786;BME280;24535;45.508;12.252;2022-09-24T03:44:50;101586.41;;;19.41;53.35
38786;BME280;24535;45.508;12.252;2022-09-24T03:47:20;101586.66;;;19.38;54.01
38786;BME280;24535;45.508;12.252;2022-09-24T03:49:48;101592.69;;;19.40;53.08
38786;BME280;24535;45.508;12.252;2022-09-24T03:54:49;101588.19;;;19.40;53.76
38786;BME280;24535;45.508;12.252;2022-09-24T03:57:15;101588.19;;;19.40;54.09
38786;BME280;24535;45.508;12.252;2022-09-24T03:59:43;101583.56;;;19.42;53.58
38786;BME280;24535;45.508;12.252;2022-09-24T04:02:09;101586.38;;;19.50;54.03
38786;BME280;24535;45.508;12.252;2022-09-24T04:04:40;101581.03;;;19.60;53.52
38786;BME280;24535;45.508;12.252;2022-09-24T04:07:06;101576.28;;;19.64;53.22
38786;BME280;24535;45.508;12.252;2022-09-24T04:09:31;101565.88;;;19.61;53.46
38786;BME280;24535;45.508;12.252;2022-09-24T04:12:00;101561.75;;;19.57;53.08
38786;BME280;24535;45.508;12.252;2022-09-24T04:14:26;101558.66;;;19.51;53.60
38786;BME280;24535;45.508;12.252;2022-09-24T04:16:51;101552.34;;;19.43;54.15
38786;BME280;24535;45.508;12.252;2022-09-24T04:19:20;101565.84;;;19.41;54.10
38786;BME280;24535;45.508;12.252;2022-09-24T04:21:51;101557.84;;;19.41;54.03
38786;BME280;24535;45.508;12.252;2022-09-24T04:24:17;101555.28;;;19.40;53.46
38786;BME280;24535;45.508;12.252;2022-09-24T04:26:43;101549.94;;;19.40;54.05
38786;BME280;24535;45.508;12.252;2022-09-24T04:29:15;101543.75;;;19.39;53.46
38786;BME280;24535;45.508;12.252;2022-09-24T04:31:40;101540.25;;;19.39;54.00
38786;BME280;24535;45.508;12.252;2022-09-24T04:34:07;101529.97;;;19.34;53.51
38786;BME280;24535;45.508;12.252;2022-09-24T04:39:43;101537.84;;;19.36;53.40
38786;BME280;24535;45.508;12.252;2022-09-24T04:42:08;101530.97;;;19.33;53.75
38786;BME280;24535;45.508;12.252;2022-09-24T04:44:34;101527.59;;;19.31;53.45
38786;BME280;24535;45.508;12.252;2022-09-24T04:47:00;101531.25;;;19.30;54.07
38786;BME280;24535;45.508;12.252;2022-09-24T04:49:32;101539.69;;;19.25;53.40
38786;BME280;24535;45.508;12.252;2022-09-24T04:51:58;101546.72;;;19.26;54.06
38786;BME280;24535;45.508;12.252;2022-09-24T04:54:24;101543.34;;;19.24;54.69
38786;BME280;24535;45.508;12.252;2022-09-24T04:56:49;101547.44;;;19.29;54.82
38786;BME280;24535;45.508;12.252;2022-09-24T04:59:15;101549.22;;;19.28;54.10
38786;BME280;24535;45.508;12.252;2022-09-24T05:01:44;101543.19;;;19.36;54.68
38786;BME280;24535;45.508;12.252;2022-09-24T05:04:10;101554.88;;;19.44;54.80
38786;BME280;24535;45.508;12.252;2022-09-24T05:06:35;101544.63;;;19.49;54.45
38786;BME280;24535;45.508;12.252;2022-09-24T05:09:07;101550.53;;;19.53;54.49
38786;BME280;24535;45.508;12.252;2022-09-24T05:11:32;101552.34;;;19.52;54.52
38786;BME280;24535;45.508;12.252;2022-09-24T05:14:01;101552.75;;;19.48;54.01
38786;BME280;24535;45.508;12.252;2022-09-24T05:16:26;101549.25;;;19.38;54.82
38786;BME280;24535;45.508;12.252;2022-09-24T05:22:14;101563.16;;;19.32;55.01
38786;BME280;24535;45.508;12.252;2022-09-24T05:24:39;101554.16;;;19.23;55.20
38786;BME280;24535;45.508;12.252;2022-09-24T05:27:05;101557.09;;;19.20;55.36
38786;BME280;24535;45.508;12.252;2022-09-24T05:29:35;101550.75;;;19.11;54.98
38786;BME280;24535;45.508;12.252;2022-09-24T05:32:03;101554.56;;;19.09;55.34
38786;BME280;24535;45.508;12.252;2022-09-24T05:34:33;101561.44;;;19.11;55.89
38786;BME280;24535;45.508;12.252;2022-09-24T05:36:59;101559.91;;;19.09;55.60
38786;BME280;24535;45.508;12.252;2022-09-24T05:39:25;101566.94;;;19.10;55.43
38786;BME280;24535;45.508;12.252;2022-09-24T05:41:51;101572.00;;;19.13;55.29
38786;BME280;24535;45.508;12.252;2022-09-24T05:44:16;101578.19;;;19.13;55.67
38786;BME280;24535;45.508;12.252;2022-09-24T05:46:46;101580.03;;;19.13;55.93
38786;BME280;24535;45.508;12.252;2022-09-24T05:49:12;101582.41;;;19.16;55.52
38786;BME280;24535;45.508;12.252;2022-09-24T05:51:37;101588.19;;;19.21;55.33
38786;BME280;24535;45.508;12.252;2022-09-24T05:54:35;101585.69;;;19.29;55.58
38786;BME280;24535;45.508;12.252;2022-09-24T05:57:01;101580.19;;;19.31;55.10
38786;BME280;24535;45.508;12.252;2022-09-24T05:59:29;101569.78;;;19.37;55.51
38786;BME280;24535;45.508;12.252;2022-09-24T06:01:54;101580.91;;;19.42;55.33
38786;BME280;24535;45.508;12.252;2022-09-24T06:04:20;101580.19;;;19.40;54.98
38786;BME280;24535;45.508;12.252;2022-09-24T06:06:45;101579.06;;;19.43;54.71
38786;BME280;24535;45.508;12.252;2022-09-24T06:09:11;101571.19;;;19.41;54.58
38786;BME280;24535;45.508;12.252;2022-09-24T06:11:36;101572.03;;;19.42;54.89
38786;BME280;24535;45.508;12.252;2022-09-24T06:14:02;101570.47;;;19.39;54.37
38786;BME280;24535;45.508;12.252;2022-09-24T06:16:45;101571.63;;;19.37;54.42
38786;BME280;24535;45.508;12.252;2022-09-24T06:22:28;101572.31;;;19.29;55.31
38786;BME280;24535;45.508;12.252;2022-09-24T06:24:53;101579.91;;;19.34;55.17
38786;BME280;24535;45.508;12.252;2022-09-24T06:27:18;101582.16;;;19.38;55.29
38786;BME280;24535;45.508;12.252;2022-09-24T06:29:44;101576.25;;;19.44;55.06
38786;BME280;24535;45.508;12.252;2022-09-24T06:32:09;101581.19;;;19.49;54.73
38786;BME280;24535;45.508;12.252;2022-09-24T06:34:35;101580.78;;;19.54;54.23
38786;BME280;24535;45.508;12.252;2022-09-24T06:43:26;101584.84;;;19.58;54.63
38786;BME280;24535;45.508;12.252;2022-09-24T06:45:58;101589.47;;;19.56;54.33
38786;BME280;24535;45.508;12.252;2022-09-24T06:48:24;101590.88;;;19.60;54.79
38786;BME280;24535;45.508;12.252;2022-09-24T06:50:50;101586.53;;;19.59;54.73
38786;BME280;24535;45.508;12.252;2022-09-24T06:53:16;101598.13;;;19.69;54.73
38786;BME280;24535;45.508;12.252;2022-09-24T06:55:42;101602.19;;;19.73;54.66
38786;BME280;24535;45.508;12.252;2022-09-24T06:58:10;101595.16;;;19.82;54.77
38786;BME280;24535;45.508;12.252;2022-09-24T07:00:37;101597.25;;;19.88;54.05
38786;BME280;24535;45.508;12.252;2022-09-24T07:03:04;101592.63;;;19.90;54.30
38786;BME280;24535;45.508;12.252;2022-09-24T07:05:31;101599.38;;;19.94;54.24
38786;BME280;24535;45.508;12.252;2022-09-24T07:07:58;101596.25;;;19.98;53.97
38786;BME280;24535;45.508;12.252;2022-09-24T07:10:24;101598.78;;;20.00;54.00
38786;BME280;24535;45.508;12.252;2022-09-24T07:12:51;101600.19;;;20.04;54.30
38786;BME280;24535;45.508;12.252;2022-09-24T07:15:17;101591.44;;;20.12;54.27
38786;BME280;24535;45.508;12.252;2022-09-24T07:17:42;101603.66;;;20.24;54.12
38786;BME280;24535;45.508;12.252;2022-09-24T07:20:08;101606.34;;;20.34;53.80
38786;BME280;24535;45.508;12.252;2022-09-24T07:22:38;101600.94;;;20.43;53.62
38786;BME280;24535;45.508;12.252;2022-09-24T07:25:09;101608.28;;;20.51;53.04
38786;BME280;24535;45.508;12.252;2022-09-24T07:27:36;101602.22;;;20.59;52.50
38786;BME280;24535;45.508;12.252;2022-09-24T07:30:06;101597.78;;;20.67;52.81
38786;BME280;24535;45.508;12.252;2022-09-24T07:32:32;101603.38;;;20.74;52.41
38786;BME280;24535;45.508;12.252;2022-09-24T07:37:42;101600.41;;;20.87;52.22
38786;BME280;24535;45.508;12.252;2022-09-24T07:40:08;101603.91;;;20.87;51.94
38786;BME280;24535;45.508;12.252;2022-09-24T07:45:42;101593.75;;;20.91;51.16
38786;BME280;24535;45.508;12.252;2022-09-24T07:48:08;101596.25;;;20.92;51.06
38786;BME280;24535;45.508;12.252;2022-09-24T07:50:38;101604.69;;;20.97;51.09
38786;BME280;24535;45.508;12.252;2022-09-24T07:53:09;101607.34;;;21.07;51.13
38786;BME280;24535;45.508;12.252;2022-09-24T07:55:36;101598.84;;;21.12;51.23
38786;BME280;24535;45.508;12.252;2022-09-24T07:58:05;101597.25;;;21.19;50.56
38786;BME280;24535;45.508;12.252;2022-09-24T08:00:32;101595.81;;;21.24;50.58
38786;BME280;24535;45.508;12.252;2022-09-24T08:02:57;101600.72;;;21.47;50.58
38786;BME280;24535;45.508;12.252;2022-09-24T08:05:23;101602.88;;;21.79;50.99
38786;BME280;24535;45.508;12.252;2022-09-24T08:07:51;101601.25;;;22.22;50.39
38786;BME280;24535;45.508;12.252;2022-09-24T08:10:17;101596.13;;;22.71;49.33
38786;BME280;24535;45.508;12.252;2022-09-24T08:15:44;101587.72;;;23.67;46.83
38786;BME280;24535;45.508;12.252;2022-09-24T08:18:11;101599.63;;;24.13;46.98
38786;BME280;24535;45.508;12.252;2022-09-24T08:20:43;101605.78;;;24.55;45.77
38786;BME280;24535;45.508;12.252;2022-09-24T08:23:40;101608.41;;;24.87;43.98
38786;BME280;24535;45.508;12.252;2022-09-24T08:26:27;101613.03;;;25.10;44.25
38786;BME280;24535;45.508;12.252;2022-09-24T08:28:53;101602.53;;;25.15;44.11
38786;BME280;24535;45.508;12.252;2022-09-24T08:31:37;101613.53;;;25.13;42.37
38786;BME280;24535;45.508;12.252;2022-09-24T12:13:55;101506.28;;;23.89;43.24
38786;BME280;24535;45.508;12.252;2022-09-24T13:44:02;101491.72;;;22.76;50.01
38786;BME280;24535;45.508;12.252;2022-09-24T13:50:39;101494.38;;;22.68;50.64
38786;BME280;24535;45.508;12.252;2022-09-24T13:56:05;101489.66;;;22.62;50.53
38786;BME280;24535;45.508;12.252;2022-09-24T14:27:51;101480.69;;;22.37;53.82
38786;BME280;24535;45.508;12.252;2022-09-24T14:34:06;101482.69;;;22.35;53.62
38786;BME280;24535;45.508;12.252;2022-09-24T14:36:46;101479.84;;;22.36;54.64
38786;BME280;24535;45.508;12.252;2022-09-24T14:39:47;101466.22;;;22.30;54.71
38786;BME280;24535;45.508;12.252;2022-09-24T14:45:40;101452.59;;;22.23;55.56
38786;BME280;24535;45.508;12.252;2022-09-24T15:17:45;101455.47;;;22.04;54.06
38786;BME280;24535;45.508;12.252;2022-09-24T15:20:19;101448.91;;;21.98;54.70
38786;BME280;24535;45.508;12.252;2022-09-24T15:25:23;101450.09;;;22.04;54.66
38786;BME280;24535;45.508;12.252;2022-09-24T15:27:52;101445.75;;;22.03;54.83
38786;BME280;24535;45.508;12.252;2022-09-24T15:36:23;101436.50;;;21.97;54.30
38786;BME280;24535;45.508;12.252;2022-09-24T15:39:04;101433.31;;;21.93;54.63
38786;BME280;24535;45.508;12.252;2022-09-24T15:41:54;101435.63;;;21.88;54.70
38786;BME280;24535;45.508;12.252;2022-09-24T15:59:41;101424.19;;;21.86;55.33
38786;BME280;24535;45.508;12.252;2022-09-24T16:02:30;101412.63;;;21.86;55.77
38786;BME280;24535;45.508;12.252;2022-09-24T16:08:13;101407.41;;;21.76;55.35
38786;BME280;24535;45.508;12.252;2022-09-24T16:11:20;101420.47;;;21.79;56.26
38786;BME280;24535;45.508;12.252;2022-09-24T16:19:56;101409.34;;;21.66;56.23
38786;BME280;24535;45.508;12.252;2022-09-24T16:22:24;101415.22;;;21.69;56.27
38786;BME280;24535;45.508;12.252;2022-09-24T16:25:10;101422.44;;;21.69;56.32
38786;BME280;24535;45.508;12.252;2022-09-24T16:27:44;101411.50;;;21.62;55.93
38786;BME280;24535;45.508;12.252;2022-09-24T17:03:56;101402.34;;;21.29;57.30
38786;BME280;24535;45.508;12.252;2022-09-24T17:09:30;101399.00;;;21.27;57.48
38786;BME280;24535;45.508;12.252;2022-09-24T17:27:52;101409.66;;;21.19;57.69
38786;BME280;24535;45.508;12.252;2022-09-24T17:30:40;101408.66;;;21.20;57.31
38786;BME280;24535;45.508;12.252;2022-09-24T17:39:17;101404.97;;;21.21;57.81
38786;BME280;24535;45.508;12.252;2022-09-24T17:41:59;101402.75;;;21.16;57.80
38786;BME280;24535;45.508;12.252;2022-09-24T17:44:43;101403.97;;;21.22;57.21
38786;BME280;24535;45.508;12.252;2022-09-24T17:51:52;101410.41;;;21.29;57.38
38786;BME280;24535;45.508;12.252;2022-09-24T17:57:43;101407.72;;;21.29;57.52
38786;BME280;24535;45.508;12.252;2022-09-24T19:26:34;101425.25;;;20.70;57.79
38786;BME280;24535;45.508;12.252;2022-09-24T19:35:21;101422.41;;;20.54;59.27
